Остафьево

СКИДКИ НА СМАРТФОНЫ!

Карта отелей и гостиниц, располагающихся рядом с аэропортом Остафьево :

Остафьево
Москва
Москва 55° 30' 27.8388" N, 37° 30' 22.86" E
Код аэродрома ИКАО
UUMO
Код аэродрома RU
УУМО
Координаты
N55.50773° E037.50635°
Превышение над уровнем моря
172
Основная полоса
08/26
Курс магнитный
074,2/254,2
Длина основной ВПП
2050
Ширина основной ВПП
48
Покрытие основной ВПП
Твёрдое (железобетон)
Освещение ВПП
Постоянное
Тип: 
Аэродром
Класс аэродрома: 
Международный
Принадлежность: 
МО
Статус: 
Действующий
Сайт: 
ostafyevo-airport.ru
E-mail аэродрома: 
airport@gazavia.gazprom.ru
Страна: 
Россия
Регион: 
Москва
Город: 
Москва
Дополнительная информация: 
Совместного базирования (МО РФ, ООО Авиапредприятие "Газпром авиа", ООО "Шар инк ЛТК"). Позиционируется как международный бизнес-аэропорт. Нкр.=(150/400)м. ДПРМ: 625-"НВ/ПС". БПРМ: 305-"Н/П". Военный индекс: XUMO / ЬУМО. Старшим авиационным начальником аэродрома совместного базирования «Остафьево» является командир 7050-й гвардейской авиационной группы (в/ч 49324-3) из состава авиационной базы Северного флота морской авиации ВМФ России (г. Североморск).
Погода: 

Авиационная погода в Москве - Остафьево

Погода METAR: 
UUMO 091530Z 06001MPS 9999 SCT037CB 20/15 Q1021 R25/CLRD60 NOSIG RMK QFE751/1001
Время наблюдения
2022-08-09T15:30:00Z
Температура C
20.0
Точка росы
15.0
Направление ветра
60
Скорость ветра (узлы)
2
Метео видимость
6.21
Облачность
SCT
Нижняя граница облачности (футы)
3700
Явления погоды
Условия полета
VFR
Аэропорт подробнее: 
SCT – разбросанная отдельная облачность;

Скидки на навигаторы!

Найти трансфер

С помощью этой формы Вы можете найти трансфер из аэропорта Остафьево в город, аэропорт или вокзал:

Погода в аэропортах:

Авиационная погода в Берлевоге

Регион: 
Погода METAR: 
ENBV 091520Z AUTO 27011KT 9999 -RA SCT034 BKN044 OVC054 13/10 Q1016
Время наблюдения
2022-08-09T15:20:00Z
Температура C
13.0
Точка росы
10.0
Направление ветра
270
Скорость ветра (узлы)
11
Метео видимость
6.21
Облачность
SCT
BKN
OVC
Нижняя граница облачности (футы)
3400
4400
5400
Явления погоды
-RA
Условия полета
VFR
SCT – разбросанная отдельная облачность; BKN – значительная (рассеянная, разорванная) облачность; OVC – сплошная облачность;
-RA - слабый дождь;

Авиационная погода в Сургуте

Регион: 
Погода METAR: 
USRR 091430Z 01004MPS 2300 HZ BKN022 24/19 Q1016 R25/CLRD60 TEMPO 1200 HZ RMK OBST OBSC QFE756
Время наблюдения
2022-08-09T14:30:00Z
Температура C
24.0
Точка росы
19.0
Направление ветра
10
Скорость ветра (узлы)
8
Метео видимость
1.43
Облачность
BKN
Нижняя граница облачности (футы)
2200
Явления погоды
HZ
Условия полета
IFR
Аэропорт подробнее: 
BKN – значительная (рассеянная, разорванная) облачность;
HZ – мгла (видимость менее 10 км);

Авиационная погода в Елизово

Регион: 
Погода METAR: 
UHPP 091600Z 15006MPS 8000 -SHRA SCT008 OVC031CB 12/12 Q1014 R16R/CLRD70 NOSIG RMK QFE757/1010
Время наблюдения
2022-08-09T16:00:00Z
Температура C
12.0
Точка росы
12.0
Направление ветра
150
Скорость ветра (узлы)
12
Метео видимость
4.97
Облачность
SCT
OVC
Нижняя граница облачности (футы)
800
3100
Явления погоды
-SHRA
Условия полета
MVFR
Аэропорт подробнее: 
SCT – разбросанная отдельная облачность; OVC – сплошная облачность;
-SHRA - слабый ливневой дождь;

Авиационная погода в Липецке

Регион: 
Погода METAR: 
UUOL 091530Z 31003MPS 260V020 9000 -TSRA SCT///CB 24/15 Q1019 R33/290150 TEMPO VRB15MPS 1000 TSRAGR SQ BKN015CB
Время наблюдения
2022-08-09T15:30:00Z
Температура C
24.0
Точка росы
15.0
Направление ветра
310
Скорость ветра (узлы)
6
Метео видимость
5.59
Облачность
Нижняя граница облачности (футы)
Явления погоды
-TSRA
Условия полета
Аэропорт подробнее: 
TSRA - гроза с дождём;